Weather at Westfield-Barnes Regional Airport

Public forecast

Using degrees Fahrenheit for public forecast. Weather courtesy of forecast.io.

Current aviation weather report (METAR) for Westfield-Barnes Regional Airport

Report is more than 6 hours old.

2022/11/14 14:53 (retrieved 2 years ago)

KBAF 141453Z 31014G20KT 10SM CLR 04/M08 A3026 RMK AO2 SLP250 T00391078 50021

Aviation forecast (TAF) for Westfield-Barnes Regional Airport

Forecast is more than 12 hours old.

2023/02/22 18:40 (retrieved 1 year ago)

TAF KBAF 221738Z 2218/2318 33004KT P6SM OVC100 FM222300 00000KT 5SM -SN BR OVC020 FM230400 10003KT 2SM -SNPL BR OVC008 FM230700 08005KT 2SM -RAPL BR OVC003 FM231500 03007KT 2SM BR VCSH OVC010